Time;durP1;ratioP1;P1;durP2;ratioP2;P2;SDS_P1;SDS_P2;PMS_P1;PMS_P2;Temp;Humidity;BMP_temperature;BMP_pressure;BME280_temperature;BME280_humidity;BME280_pressure;Samples;Min_cycle;Max_cycle;Signal;HPM_P1;HPM_P2
2022/10/31 00:01:55;;;;;;;12.30;8.90;;;14.90;99.90;;;;;;10486385;28;20189;-79
2022/10/31 00:06:58;;;;;;;7.83;6.97;;;14.90;99.90;;;;;;10449978;28;20233;-79
2022/10/31 00:12:00;;;;;;;13.50;8.47;;;14.90;99.90;;;;;;10461446;28;20229;-79
2022/10/31 00:17:02;;;;;;;7.57;6.60;;;14.90;99.90;;;;;;10461507;28;20231;-80
2022/10/31 00:22:06;;;;;;;8.80;7.37;;;14.80;99.90;;;;;;10442974;28;20733;-80
2022/10/31 00:27:08;;;;;;;16.80;11.10;;;14.80;99.90;;;;;;10386927;28;20585;-82
2022/10/31 00:32:10;;;;;;;9.47;7.07;;;14.80;99.90;;;;;;10416257;28;21875;-82
2022/10/31 00:37:26;;;;;;;10.30;6.97;;;14.80;99.90;;;;;;10423913;28;20217;-80
2022/10/31 00:42:28;;;;;;;8.63;7.80;;;14.80;99.90;;;;;;10402007;28;20186;-80
2022/10/31 00:47:32;;;;;;;23.10;12.73;;;14.70;99.90;;;;;;10419175;28;20214;-81
2022/10/31 00:52:36;;;;;;;14.97;7.03;;;14.70;99.90;;;;;;10423428;28;20620;-81
2022/10/31 00:57:38;;;;;;;11.20;8.33;;;14.70;99.90;;;;;;10442061;28;20293;-79
2022/10/31 01:02:47;;;;;;;8.53;6.67;;;14.70;99.90;;;;;;10419788;28;20282;-82
2022/10/31 01:07:50;;;;;;;7.30;6.60;;;14.60;99.90;;;;;;10432291;22;20297;-82
2022/10/31 01:12:52;;;;;;;9.93;7.87;;;14.60;99.90;;;;;;10427041;28;20384;-83
2022/10/31 01:17:57;;;;;;;9.17;7.77;;;14.60;99.90;;;;;;10469472;28;20699;-84
2022/10/31 01:23:01;;;;;;;8.70;6.57;;;14.60;99.90;;;;;;10452744;28;20304;-85
2022/10/31 01:28:03;;;;;;;9.67;7.57;;;14.60;99.90;;;;;;10427420;28;20275;-83
2022/10/31 01:33:05;;;;;;;7.80;7.00;;;14.50;99.90;;;;;;10460439;28;20288;-83
2022/10/31 01:38:12;;;;;;;8.87;7.30;;;14.50;99.90;;;;;;10459774;28;20733;-84
2022/10/31 01:43:15;;;;;;;8.50;7.40;;;14.50;99.90;;;;;;10473056;28;20231;-84
2022/10/31 01:48:21;;;;;;;12.07;8.10;;;14.50;99.90;;;;;;10504314;28;20218;-84
2022/10/31 01:53:25;;;;;;;9.47;7.27;;;14.50;99.90;;;;;;10433702;28;20206;-84
2022/10/31 01:58:30;;;;;;;7.90;6.77;;;14.50;99.90;;;;;;10431610;28;20229;-83
2022/10/31 02:03:33;;;;;;;14.00;8.33;;;14.50;99.90;;;;;;10478941;28;20730;-82
2022/10/31 02:08:38;;;;;;;9.53;7.20;;;14.50;99.90;;;;;;10501578;28;20212;-82
2022/10/31 02:13:40;;;;;;;7.90;6.50;;;14.50;99.90;;;;;;10504074;28;20660;-84
2022/10/31 02:18:43;;;;;;;9.40;8.40;;;14.50;99.90;;;;;;10483100;28;20718;-83
2022/10/31 02:24:12;;;;;;;10.40;8.07;;;14.50;99.90;;;;;;10463010;28;20189;-84
2022/10/31 02:29:41;;;;;;;12.70;7.77;;;14.50;99.90;;;;;;10458895;28;20598;-82
2022/10/31 02:34:53;;;;;;;14.23;7.27;;;14.40;99.90;;;;;;10464657;28;20673;-82
2022/10/31 02:40:01;;;;;;;16.40;9.97;;;14.40;99.90;;;;;;10442081;28;20192;-84
2022/10/31 02:45:27;;;;;;;17.80;9.27;;;14.40;99.90;;;;;;10418938;28;20213;-82
2022/10/31 02:50:34;;;;;;;8.17;7.07;;;14.40;99.90;;;;;;10480298;28;20204;-82
2022/10/31 02:55:54;;;;;;;9.63;7.17;;;14.30;99.90;;;;;;10483404;28;20221;-84
2022/10/31 03:01:17;;;;;;;45.90;22.40;;;14.30;99.90;;;;;;10402615;28;20676;-83
2022/10/31 03:06:29;;;;;;;8.80;7.90;;;14.30;99.90;;;;;;10417195;28;20221;-83
2022/10/31 03:11:39;;;;;;;12.43;9.53;;;14.20;99.90;;;;;;10506832;28;20203;-83
2022/10/31 03:16:47;;;;;;;9.93;7.90;;;14.20;99.90;;;;;;10488172;28;20214;-85
2022/10/31 03:21:54;;;;;;;10.97;7.70;;;14.20;99.90;;;;;;10404358;28;20192;-85
2022/10/31 03:27:00;;;;;;;9.80;8.53;;;14.20;99.90;;;;;;10490211;28;20208;-85
2022/10/31 03:32:08;;;;;;;8.07;7.27;;;14.20;99.90;;;;;;10486311;28;20208;-84
2022/10/31 03:37:15;;;;;;;12.17;7.97;;;14.20;99.90;;;;;;10476312;28;20255;-83
2022/10/31 03:42:22;;;;;;;11.53;8.20;;;14.10;99.90;;;;;;10441532;28;20231;-82
2022/10/31 03:47:24;;;;;;;10.17;8.00;;;14.10;99.90;;;;;;10484949;28;20217;-82
2022/10/31 03:52:33;;;;;;;8.43;7.63;;;14.10;99.90;;;;;;10437458;28;20217;-83
2022/10/31 03:57:42;;;;;;;8.13;7.47;;;14.10;99.90;;;;;;10462894;28;20255;-83
2022/10/31 04:02:48;;;;;;;8.80;7.90;;;14.00;99.90;;;;;;10422686;28;20218;-83
2022/10/31 04:07:55;;;;;;;7.53;6.90;;;14.00;99.90;;;;;;10488315;28;20232;-83
2022/10/31 04:13:01;;;;;;;10.27;9.37;;;14.00;99.90;;;;;;10451469;28;20697;-82
2022/10/31 04:18:09;;;;;;;9.33;8.63;;;14.00;99.90;;;;;;10456019;28;20568;-85
2022/10/31 04:23:20;;;;;;;10.13;8.37;;;14.00;99.90;;;;;;10514754;28;20204;-83
2022/10/31 04:28:22;;;;;;;8.90;8.13;;;14.00;99.90;;;;;;10503076;28;20216;-83
2022/10/31 04:33:25;;;;;;;10.40;8.23;;;14.00;99.90;;;;;;10440760;28;20297;-84
2022/10/31 04:38:28;;;;;;;9.60;8.70;;;14.00;99.90;;;;;;10476056;28;20255;-82
2022/10/31 04:43:31;;;;;;;9.07;7.90;;;14.00;99.90;;;;;;10462480;28;20217;-82
2022/10/31 04:48:35;;;;;;;10.00;9.00;;;13.90;99.90;;;;;;10460397;28;20241;-82
2022/10/31 04:53:41;;;;;;;9.10;8.30;;;13.90;99.90;;;;;;10461705;28;20221;-83
2022/10/31 04:59:02;;;;;;;10.10;9.20;;;13.90;99.90;;;;;;10421968;28;20669;-84
2022/10/31 05:04:13;;;;;;;12.17;8.60;;;13.90;99.90;;;;;;10481800;28;20199;-84
2022/10/31 05:09:19;;;;;;;9.47;8.67;;;13.80;99.90;;;;;;10463886;28;20220;-84
2022/10/31 05:14:22;;;;;;;11.90;9.63;;;13.80;99.90;;;;;;10483416;28;20213;-85
2022/10/31 05:19:47;;;;;;;13.87;8.33;;;13.70;99.90;;;;;;10455456;28;20226;-83
2022/10/31 05:25:11;;;;;;;13.10;8.77;;;13.70;99.90;;;;;;10492580;28;20217;-83
2022/10/31 05:30:15;;;;;;;10.10;9.20;;;13.60;99.90;;;;;;10460350;28;20229;-82
2022/10/31 05:35:19;;;;;;;9.90;8.97;;;13.60;99.90;;;;;;10446829;28;20857;-84
2022/10/31 05:40:59;;;;;;;13.63;11.90;;;13.60;99.90;;;;;;10450932;28;20192;-85
2022/10/31 05:46:02;;;;;;;9.33;8.33;;;13.60;99.90;;;;;;10475398;28;20746;-82
2022/10/31 05:51:23;;;;;;;8.80;8.10;;;13.60;99.90;;;;;;10461189;28;20233;-84
2022/10/31 05:56:26;;;;;;;14.07;9.20;;;13.60;99.90;;;;;;10463048;28;20296;-84
2022/10/31 06:01:28;;;;;;;12.87;8.90;;;13.50;99.90;;;;;;10456553;28;20197;-83
2022/10/31 06:06:34;;;;;;;10.73;9.73;;;13.50;99.90;;;;;;10486619;28;20319;-86
2022/10/31 06:11:37;;;;;;;8.57;7.60;;;13.50;99.90;;;;;;10505597;28;20603;-85
2022/10/31 06:16:39;;;;;;;13.67;9.40;;;13.50;99.90;;;;;;10506835;28;20303;-84
2022/10/31 06:22:01;;;;;;;11.73;8.73;;;13.50;99.90;;;;;;10489157;28;20189;-83
2022/10/31 06:27:06;;;;;;;10.77;9.37;;;13.50;99.90;;;;;;10476542;28;20217;-84
2022/10/31 06:32:11;;;;;;;10.13;9.30;;;13.50;99.90;;;;;;10473358;28;20216;-86
2022/10/31 06:37:16;;;;;;;10.13;9.23;;;13.50;99.90;;;;;;10487612;28;20220;-84
2022/10/31 06:42:23;;;;;;;8.80;8.07;;;13.50;99.90;;;;;;10469503;28;20213;-85
2022/10/31 06:47:26;;;;;;;10.50;9.50;;;13.60;99.90;;;;;;10443706;28;20259;-85
2022/10/31 06:52:41;;;;;;;10.20;9.13;;;13.60;99.90;;;;;;10475644;28;20200;-85
2022/10/31 06:57:51;;;;;;;10.50;9.43;;;13.60;99.90;;;;;;10466669;28;20218;-82
2022/10/31 07:02:55;;;;;;;13.37;9.60;;;13.60;99.90;;;;;;10477300;28;20188;-86
2022/10/31 07:08:01;;;;;;;9.67;8.77;;;13.60;99.90;;;;;;10541871;22;20232;-81
2022/10/31 07:13:06;;;;;;;10.70;9.73;;;13.60;99.90;;;;;;10484797;28;20258;-81
2022/10/31 07:18:13;;;;;;;9.00;8.00;;;13.70;99.90;;;;;;10485439;28;20242;-81
2022/10/31 07:23:15;;;;;;;32.13;21.50;;;13.70;99.90;;;;;;10501607;28;20193;-81
2022/10/31 07:28:25;;;;;;;25.80;20.90;;;13.80;99.90;;;;;;10485182;28;20692;-82
2022/10/31 07:33:27;;;;;;;14.00;12.40;;;13.80;99.90;;;;;;10502303;28;20287;-81
2022/10/31 07:38:50;;;;;;;9.67;8.17;;;13.90;99.90;;;;;;10504674;28;20213;-82
2022/10/31 07:43:54;;;;;;;11.80;9.40;;;13.90;99.90;;;;;;10484834;28;20200;-81
2022/10/31 07:49:31;;;;;;;7.67;7.03;;;14.00;99.90;;;;;;10450942;28;20225;-82
2022/10/31 07:54:52;;;;;;;12.20;9.73;;;14.10;99.90;;;;;;10500912;28;20585;-82
2022/10/31 08:00:00;;;;;;;12.43;10.97;;;14.20;99.90;;;;;;10484813;28;20327;-82
2022/10/31 08:05:02;;;;;;;17.17;10.90;;;14.30;99.90;;;;;;10512791;28;20189;-82
2022/10/31 08:10:05;;;;;;;10.77;9.77;;;14.40;99.90;;;;;;10510460;28;20300;-82
2022/10/31 08:15:11;;;;;;;10.13;9.23;;;14.50;99.90;;;;;;10492791;28;20219;-82
2022/10/31 08:20:13;;;;;;;12.23;10.93;;;14.60;99.90;;;;;;10494708;28;20215;-82
2022/10/31 08:25:21;;;;;;;10.83;9.80;;;14.60;99.90;;;;;;10503860;28;20197;-82
2022/10/31 08:30:27;;;;;;;10.77;9.67;;;14.70;99.90;;;;;;10507594;28;20220;-82
2022/10/31 08:35:49;;;;;;;12.20;11.10;;;14.90;99.90;;;;;;10468143;28;20220;-82
2022/10/31 08:41:10;;;;;;;13.33;10.90;;;15.00;99.90;;;;;;10510966;28;20218;-82
2022/10/31 08:46:14;;;;;;;13.37;11.93;;;15.10;99.90;;;;;;10510296;28;20280;-82
2022/10/31 08:51:18;;;;;;;12.80;11.37;;;15.20;99.90;;;;;;10492031;28;20205;-82
2022/10/31 08:56:22;;;;;;;11.93;10.90;;;15.30;99.90;;;;;;10469047;28;20619;-82
2022/10/31 09:01:26;;;;;;;14.00;11.63;;;15.50;99.90;;;;;;10477284;28;20275;-82
2022/10/31 09:06:28;;;;;;;11.63;9.97;;;15.60;99.90;;;;;;10516345;28;20239;-82
2022/10/31 09:11:31;;;;;;;12.80;11.50;;;15.70;99.90;;;;;;10495165;28;20208;-82
2022/10/31 09:16:58;;;;;;;12.10;11.03;;;15.80;99.90;;;;;;10472958;28;20228;-82
2022/10/31 09:22:14;;;;;;;12.87;10.43;;;15.90;99.90;;;;;;10490479;28;20206;-82
2022/10/31 09:27:19;;;;;;;13.33;10.70;;;16.00;99.90;;;;;;10450009;28;20219;-82
2022/10/31 09:32:24;;;;;;;14.10;11.73;;;16.10;99.90;;;;;;10481122;28;20204;-82
2022/10/31 09:37:26;;;;;;;10.57;9.67;;;16.20;99.90;;;;;;10484798;28;20247;-82
2022/10/31 09:42:48;;;;;;;12.17;11.00;;;16.30;99.90;;;;;;10504618;28;20680;-82
2022/10/31 09:48:22;;;;;;;12.43;11.17;;;16.30;99.90;;;;;;10500093;28;20248;-82
2022/10/31 09:53:41;;;;;;;11.00;10.00;;;16.40;99.90;;;;;;10506403;28;20246;-82
2022/10/31 09:58:48;;;;;;;14.80;13.30;;;16.40;99.90;;;;;;10462921;28;20312;-82
2022/10/31 10:03:56;;;;;;;13.33;10.90;;;16.50;99.90;;;;;;10488492;28;20206;-82
2022/10/31 10:09:19;;;;;;;11.13;10.03;;;16.50;99.90;;;;;;10504670;28;20303;-82
2022/10/31 10:14:52;;;;;;;15.23;10.60;;;16.50;99.90;;;;;;10486309;28;20650;-82
2022/10/31 10:20:15;;;;;;;14.33;10.20;;;16.70;99.90;;;;;;10496398;28;20240;-82
2022/10/31 10:25:23;;;;;;;15.93;11.07;;;16.80;99.90;;;;;;10506007;28;20212;-82
2022/10/31 10:30:33;;;;;;;15.00;11.00;;;16.90;99.90;;;;;;10496858;28;20216;-82
2022/10/31 10:35:42;;;;;;;11.50;10.07;;;17.00;99.90;;;;;;10509806;28;20785;-82
2022/10/31 10:40:45;;;;;;;15.67;10.40;;;17.00;99.90;;;;;;10521741;28;20196;-82
2022/10/31 10:51:22;;;;;;;11.40;10.30;;;17.20;99.90;;;;;;10516652;28;20212;-82
2022/10/31 10:56:36;;;;;;;10.60;9.70;;;17.30;99.90;;;;;;10528786;28;20224;-82
2022/10/31 11:01:40;;;;;;;10.70;9.70;;;17.40;99.90;;;;;;10536589;28;20199;-82
2022/10/31 11:06:44;;;;;;;11.93;10.73;;;17.40;99.90;;;;;;10532775;28;20731;-83
2022/10/31 11:11:46;;;;;;;11.03;9.33;;;17.50;99.90;;;;;;10484575;28;20291;-82
2022/10/31 11:16:50;;;;;;;12.20;10.23;;;17.50;99.90;;;;;;10483549;28;20564;-82
2022/10/31 11:21:54;;;;;;;15.20;10.40;;;17.60;99.90;;;;;;10482821;28;20196;-82
2022/10/31 11:27:15;;;;;;;11.60;10.50;;;17.70;99.90;;;;;;10502244;28;20221;-82
2022/10/31 11:32:21;;;;;;;11.93;10.47;;;17.70;99.90;;;;;;10499765;28;20214;-82
2022/10/31 11:37:28;;;;;;;12.40;10.43;;;17.80;99.90;;;;;;10489833;28;20216;-82
2022/10/31 11:42:36;;;;;;;13.97;10.70;;;17.90;99.90;;;;;;10493426;28;20208;-82
2022/10/31 11:47:41;;;;;;;12.73;10.80;;;18.00;99.90;;;;;;10493174;28;20702;-82
2022/10/31 11:52:45;;;;;;;12.47;11.17;;;18.00;99.90;;;;;;10518500;28;20220;-80
2022/10/31 11:57:49;;;;;;;12.63;11.23;;;18.00;99.90;;;;;;10499903;28;20672;-82
2022/10/31 12:02:52;;;;;;;18.00;12.13;;;18.10;99.90;;;;;;10505111;28;20183;-83
2022/10/31 12:07:55;;;;;;;15.30;11.17;;;18.10;99.90;;;;;;10507310;28;20295;-83
2022/10/31 12:13:23;;;;;;;12.57;11.37;;;18.10;99.90;;;;;;10505990;28;20304;-83
2022/10/31 12:18:49;;;;;;;13.47;12.20;;;18.10;99.90;;;;;;10499669;28;20308;-83
2022/10/31 12:24:03;;;;;;;12.60;11.30;;;18.10;99.90;;;;;;10513085;28;20184;-83
2022/10/31 12:29:31;;;;;;;12.43;11.20;;;18.20;99.90;;;;;;10504790;28;20295;-83
2022/10/31 12:35:11;;;;;;;14.97;11.33;;;18.20;99.90;;;;;;10487297;28;20270;-83
2022/10/31 12:40:32;;;;;;;13.10;11.80;;;18.30;99.90;;;;;;10457333;28;20302;-83
2022/10/31 12:45:50;;;;;;;14.03;11.60;;;18.20;99.90;;;;;;10445491;28;20203;-83
2022/10/31 12:51:00;;;;;;;14.37;12.40;;;18.20;99.90;;;;;;10460023;28;20205;-83
2022/10/31 12:56:14;;;;;;;12.53;11.30;;;18.10;99.90;;;;;;10461813;28;20760;-83
2022/10/31 13:01:20;;;;;;;12.03;10.40;;;18.10;99.90;;;;;;10484917;28;20201;-83
2022/10/31 13:06:31;;;;;;;12.93;11.10;;;18.10;99.90;;;;;;10505978;22;20315;-83
2022/10/31 13:11:46;;;;;;;18.13;11.30;;;18.00;99.90;;;;;;10509453;28;20522;-82
2022/10/31 13:16:49;;;;;;;18.67;11.83;;;18.00;99.90;;;;;;10468646;28;20629;-82
2022/10/31 13:21:58;;;;;;;13.33;11.93;;;18.00;99.90;;;;;;10458906;28;20190;-81
2022/10/31 13:32:41;;;;;;;13.77;12.30;;;17.90;99.90;;;;;;10419548;28;20217;-82
2022/10/31 13:38:00;;;;;;;13.03;11.73;;;17.90;99.90;;;;;;10484369;28;20669;-82
2022/10/31 13:43:32;;;;;;;12.93;11.60;;;17.90;99.90;;;;;;10471171;28;20193;-84
2022/10/31 13:48:51;;;;;;;12.23;10.73;;;18.00;99.90;;;;;;10527563;22;20315;-85
2022/10/31 13:55:10;;;;;;;12.57;11.23;;;18.00;99.90;;;;;;10544417;28;20223;-85
2022/10/31 14:05:52;;;;;;;12.67;11.37;;;18.10;99.90;;;;;;10518540;28;20282;-82
2022/10/31 14:11:00;;;;;;;14.10;12.27;;;18.10;99.90;;;;;;10552730;28;20216;-81
2022/10/31 14:16:39;;;;;;;13.30;11.97;;;18.00;99.90;;;;;;10538537;28;20226;-84
2022/10/31 14:27:52;;;;;;;18.90;13.60;;;17.70;99.90;;;;;;10512095;28;20279;-84
2022/10/31 14:33:00;;;;;;;16.40;12.50;;;17.60;99.90;;;;;;10503699;28;20216;-84
2022/10/31 14:38:24;;;;;;;15.73;12.80;;;17.50;99.90;;;;;;10539670;28;20271;-84
2022/10/31 14:43:48;;;;;;;18.00;12.33;;;17.40;99.90;;;;;;10460111;28;20204;-84
2022/10/31 14:49:26;;;;;;;15.67;12.97;;;17.30;99.90;;;;;;10467247;28;20216;-85
2022/10/31 14:55:08;;;;;;;16.17;12.30;;;17.30;99.90;;;;;;10529044;28;20254;-83
2022/10/31 15:05:53;;;;;;;12.83;11.43;;;17.20;99.90;;;;;;10526692;28;20236;-81
2022/10/31 15:10:55;;;;;;;21.27;11.90;;;17.20;99.90;;;;;;10514559;28;20278;-83
2022/10/31 15:15:59;;;;;;;19.93;11.80;;;17.20;99.90;;;;;;10532761;28;20715;-80
2022/10/31 15:21:03;;;;;;;11.17;9.97;;;17.20;99.90;;;;;;10526663;28;20204;-85
2022/10/31 15:26:06;;;;;;;12.80;10.97;;;17.20;99.90;;;;;;10507282;28;20243;-83
2022/10/31 15:43:52;;;;;;;26.13;17.60;;;17.00;99.90;;;;;;10275543;28;20242;-85
2022/10/31 15:48:54;;;;;;;13.67;10.30;;;17.00;99.90;;;;;;10336525;28;20640;-85
2022/10/31 15:54:00;;;;;;;13.70;11.27;;;16.80;99.90;;;;;;10510844;28;20224;-84
2022/10/31 15:59:48;;;;;;;15.80;14.07;;;16.80;99.90;;;;;;10501723;22;20221;-83
2022/10/31 16:05:16;;;;;;;13.53;9.50;;;16.70;99.90;;;;;;10414918;28;20194;-84
2022/10/31 16:10:27;;;;;;;11.07;10.03;;;16.60;99.90;;;;;;10538351;23;20585;-83
2022/10/31 16:15:29;;;;;;;18.53;11.00;;;16.50;99.90;;;;;;10541053;28;20220;-84
2022/10/31 16:20:37;;;;;;;13.00;10.70;;;16.40;99.90;;;;;;10465892;28;20220;-84
2022/10/31 16:25:41;;;;;;;13.87;11.23;;;16.40;99.90;;;;;;10506047;28;20250;-83
2022/10/31 16:30:45;;;;;;;19.90;16.17;;;16.40;99.90;;;;;;10474405;28;20242;-83
2022/10/31 16:35:47;;;;;;;13.23;11.23;;;16.30;99.90;;;;;;10517732;28;20209;-84
2022/10/31 16:40:52;;;;;;;14.83;11.27;;;16.20;99.90;;;;;;10507754;28;20196;-84
2022/10/31 16:45:54;;;;;;;23.73;15.43;;;16.20;99.90;;;;;;10509044;28;20235;-82
2022/10/31 16:50:56;;;;;;;17.63;12.30;;;16.10;99.90;;;;;;10468749;28;20185;-84
2022/10/31 16:56:05;;;;;;;15.93;12.50;;;16.00;99.90;;;;;;10501485;28;20256;-84
2022/10/31 17:01:08;;;;;;;16.30;14.63;;;16.00;99.90;;;;;;10465528;28;20201;-80
2022/10/31 17:12:47;;;;;;;17.90;15.67;;;15.90;99.90;;;;;;10370221;28;20307;-84
2022/10/31 17:18:33;;;;;;;26.20;17.70;;;15.80;99.90;;;;;;10485791;28;20341;-84
2022/10/31 17:30:00;;;;;;;58.63;26.60;;;15.70;99.90;;;;;;10457834;28;20287;-83
2022/10/31 17:46:12;;;;;;;20.23;17.07;;;15.60;99.90;;;;;;10306995;28;20361;-84
2022/10/31 17:56:42;;;;;;;22.63;17.63;;;15.50;99.90;;;;;;10374332;22;20228;-84
2022/10/31 18:02:09;;;;;;;21.27;15.40;;;15.40;99.90;;;;;;10465914;28;20193;-84
2022/10/31 18:07:18;;;;;;;25.77;14.70;;;15.30;99.90;;;;;;10500694;28;20201;-84
2022/10/31 18:12:20;;;;;;;16.00;14.30;;;15.30;99.90;;;;;;10455492;28;20188;-84
2022/10/31 18:17:24;;;;;;;24.10;15.40;;;15.30;99.90;;;;;;10447502;28;20217;-83
2022/10/31 18:22:26;;;;;;;37.33;33.53;;;15.20;99.90;;;;;;10435972;28;20277;-83
2022/10/31 18:27:28;;;;;;;14.87;13.40;;;15.20;99.90;;;;;;10441654;28;20244;-83
2022/10/31 18:32:31;;;;;;;24.27;15.07;;;15.10;99.90;;;;;;10442018;28;20195;-83
2022/10/31 18:37:33;;;;;;;23.37;16.10;;;15.10;99.90;;;;;;10441853;28;20278;-81
2022/10/31 18:42:37;;;;;;;15.00;13.50;;;15.00;99.90;;;;;;10448714;28;20487;-82
2022/10/31 18:47:40;;;;;;;27.03;20.30;;;15.00;99.90;;;;;;10503276;28;20216;-83
2022/10/31 18:52:42;;;;;;;18.60;15.30;;;15.00;99.90;;;;;;10444393;28;20332;-84
2022/10/31 18:57:45;;;;;;;26.70;14.80;;;15.10;99.90;;;;;;10501940;28;20216;-84
2022/10/31 19:02:48;;;;;;;16.50;13.20;;;15.10;99.90;;;;;;10471748;28;20208;-81
2022/10/31 19:07:50;;;;;;;18.77;15.30;;;15.20;99.90;;;;;;10471491;22;20291;-82
2022/10/31 19:12:52;;;;;;;19.97;15.73;;;15.20;99.90;;;;;;10496631;28;20200;-83
2022/10/31 19:17:56;;;;;;;18.00;15.57;;;15.30;99.90;;;;;;10559191;28;20746;-83
2022/10/31 19:22:58;;;;;;;20.70;17.33;;;15.30;99.90;;;;;;10527958;28;20187;-84
2022/10/31 19:28:00;;;;;;;17.83;15.93;;;15.30;99.90;;;;;;10506555;28;20247;-84
2022/10/31 19:33:04;;;;;;;17.60;15.43;;;15.40;99.90;;;;;;10513427;28;20702;-84
2022/10/31 19:38:06;;;;;;;15.90;13.90;;;15.40;99.90;;;;;;10517334;28;20218;-83
2022/10/31 19:43:08;;;;;;;18.30;16.30;;;15.40;99.90;;;;;;10545823;28;20219;-84
2022/10/31 19:48:11;;;;;;;16.77;14.60;;;15.40;99.90;;;;;;10547280;28;20238;-84
2022/10/31 19:53:14;;;;;;;17.83;13.37;;;15.40;99.90;;;;;;10531771;28;20249;-83
2022/10/31 19:58:16;;;;;;;16.50;12.57;;;15.40;99.90;;;;;;10532971;28;20216;-83
2022/10/31 20:03:19;;;;;;;18.30;12.30;;;15.40;99.90;;;;;;10558303;28;20218;-83
2022/10/31 20:08:22;;;;;;;15.30;13.40;;;15.40;99.90;;;;;;10555334;28;20531;-84
2022/10/31 20:13:25;;;;;;;26.00;16.93;;;15.40;99.90;;;;;;10554022;28;20216;-83
2022/10/31 20:18:29;;;;;;;16.27;14.47;;;15.40;99.90;;;;;;10557083;28;20250;-84
2022/10/31 20:23:31;;;;;;;20.40;14.80;;;15.30;99.90;;;;;;10551584;28;20180;-83
2022/10/31 20:28:34;;;;;;;16.87;14.20;;;15.30;99.90;;;;;;10536071;28;20221;-84
2022/10/31 20:33:37;;;;;;;28.80;21.90;;;15.30;99.90;;;;;;10544019;28;20240;-84
2022/10/31 20:38:41;;;;;;;23.07;15.43;;;15.20;99.90;;;;;;10552093;28;20580;-83
2022/10/31 20:43:43;;;;;;;25.00;19.83;;;15.20;99.90;;;;;;10543501;28;20275;-83
2022/10/31 20:48:47;;;;;;;18.60;16.53;;;15.20;99.90;;;;;;10555782;28;20245;-82
2022/10/31 20:53:50;;;;;;;19.40;14.23;;;15.30;99.90;;;;;;10546311;28;20687;-83
2022/10/31 20:58:53;;;;;;;19.50;15.90;;;15.30;99.90;;;;;;10546484;28;20220;-83
2022/10/31 21:03:58;;;;;;;17.17;15.33;;;15.20;99.90;;;;;;10547137;28;20290;-83
2022/10/31 21:09:00;;;;;;;18.20;16.40;;;15.20;99.90;;;;;;10545191;28;20234;-85
2022/10/31 21:14:02;;;;;;;18.37;16.47;;;15.20;99.90;;;;;;10547934;28;20207;-84
2022/10/31 21:19:06;;;;;;;16.57;14.83;;;15.20;99.90;;;;;;10529273;28;20314;-83
2022/10/31 21:24:12;;;;;;;19.30;15.00;;;15.20;99.90;;;;;;10548245;28;20623;-82
2022/10/31 21:29:14;;;;;;;17.10;15.10;;;15.20;99.90;;;;;;10538017;28;20589;-84
2022/10/31 21:34:18;;;;;;;15.73;12.90;;;15.10;99.90;;;;;;10532083;28;20208;-84
2022/10/31 21:39:20;;;;;;;15.60;13.43;;;15.10;99.90;;;;;;10528548;28;20223;-82
2022/10/31 21:44:22;;;;;;;12.90;10.90;;;15.10;99.90;;;;;;10520772;28;20283;-82
2022/10/31 21:49:25;;;;;;;16.77;11.53;;;15.00;99.90;;;;;;10531613;28;20691;-83
2022/10/31 21:54:28;;;;;;;15.13;11.83;;;14.90;99.90;;;;;;10522954;28;20208;-83
2022/10/31 21:59:31;;;;;;;16.10;11.10;;;14.90;99.90;;;;;;10545469;28;20235;-84
2022/10/31 22:04:34;;;;;;;13.83;11.33;;;14.90;99.90;;;;;;10546679;28;20199;-85
2022/10/31 22:09:37;;;;;;;12.20;11.00;;;14.90;99.90;;;;;;10518056;28;20596;-84
2022/10/31 22:14:39;;;;;;;16.60;11.53;;;14.90;99.90;;;;;;10522356;28;20223;-84
2022/10/31 22:19:43;;;;;;;21.60;12.87;;;14.80;99.90;;;;;;10530220;28;20319;-84
2022/10/31 22:24:45;;;;;;;19.17;11.40;;;14.80;99.90;;;;;;10550333;28;20196;-83
2022/10/31 22:29:47;;;;;;;14.93;11.57;;;14.80;99.90;;;;;;10532527;28;20638;-82
2022/10/31 22:34:50;;;;;;;12.37;11.17;;;14.80;99.90;;;;;;10525935;28;20315;-84
2022/10/31 22:39:52;;;;;;;12.80;11.50;;;14.80;99.90;;;;;;10549850;28;20247;-84
2022/10/31 22:44:54;;;;;;;25.00;13.47;;;14.80;99.90;;;;;;10524841;28;20202;-82
2022/10/31 22:49:58;;;;;;;17.13;12.50;;;14.80;99.90;;;;;;10541447;28;20311;-81
2022/10/31 22:55:00;;;;;;;13.00;11.60;;;14.90;99.90;;;;;;10541761;28;20694;-83
2022/10/31 23:00:02;;;;;;;14.77;11.23;;;14.90;99.90;;;;;;10536491;28;20250;-80
2022/10/31 23:05:06;;;;;;;16.97;12.10;;;14.90;99.90;;;;;;10539786;28;20188;-81
2022/10/31 23:10:08;;;;;;;11.17;10.13;;;14.80;99.90;;;;;;10539318;28;20216;-81
2022/10/31 23:15:11;;;;;;;13.37;10.63;;;14.80;99.90;;;;;;10522161;28;20637;-83
2022/10/31 23:20:14;;;;;;;15.27;9.90;;;14.80;99.90;;;;;;10514138;28;20743;-83
2022/10/31 23:30:36;;;;;;;12.63;11.43;;;14.80;99.90;;;;;;10512564;28;20261;-85
2022/10/31 23:35:39;;;;;;;11.90;10.63;;;14.80;99.90;;;;;;10548076;28;20214;-82
2022/10/31 23:40:43;;;;;;;12.10;11.03;;;14.70;99.90;;;;;;10543520;28;20615;-84
2022/10/31 23:45:45;;;;;;;16.73;10.80;;;14.70;99.90;;;;;;10517815;28;20192;-81
2022/10/31 23:50:48;;;;;;;13.87;11.57;;;14.70;99.90;;;;;;10509188;28;20217;-84
2022/10/31 23:55:54;;;;;;;17.77;12.10;;;14.70;99.90;;;;;;10542345;28;20231;-84
